Terminal Aerodrome Forecast
Issued by NWS

Home | Current Version | Previous Version | Text Only | Print | Product List | Glossary On
Versions: 1 2 3 4 5 6 7 8 9 10 11 12
000
FTUS44 KLIX 270300 AAA
TAFGPT
TAF AMD
KGPT 270327Z 2703/2724 09015KT P6SM OVC090
     FM271000 10012KT P6SM OVC015
     FM271200 11010KT 3SM +SHRA OVC015
     FM271600 11011KT 3/4SM +TSRA OVC015CB=

USA.gov is the U.S. government's official web portal to all federal, state and local government web resources and services.